Time;durP1;ratioP1;P1;durP2;ratioP2;P2;SDS_P1;SDS_P2;PMS_P1;PMS_P2;Temp;Humidity;BMP_temperature;BMP_pressure;BME280_temperature;BME280_humidity;BME280_pressure;Samples;Min_cycle;Max_cycle;Signal;HPM_P1;HPM_P2
2022/06/10 00:02:08;;;;;;;8.27;3.40;;;14.60;99.90;;;;;;5077565;28;20237;-79
2022/06/10 00:04:35;;;;;;;8.20;3.23;;;14.60;99.90;;;;;;5080869;28;20231;-78
2022/06/10 00:07:06;;;;;;;8.03;3.27;;;14.50;99.90;;;;;;5076056;28;20263;-78
2022/06/10 00:09:33;;;;;;;7.30;3.10;;;14.50;99.90;;;;;;5076212;28;20220;-78
2022/06/10 00:12:00;;;;;;;10.47;3.30;;;14.40;99.90;;;;;;5077632;28;20196;-78
2022/06/10 00:14:27;;;;;;;6.67;3.03;;;14.40;99.90;;;;;;5080360;28;20232;-79
2022/06/10 00:16:54;;;;;;;8.73;3.30;;;14.40;99.90;;;;;;5084020;28;20273;-77
2022/06/10 00:19:20;;;;;;;8.17;3.37;;;14.40;99.90;;;;;;5079320;28;20218;-79
2022/06/10 00:21:47;;;;;;;6.00;2.90;;;14.40;99.90;;;;;;5076812;28;20620;-80
2022/06/10 00:24:14;;;;;;;7.97;3.20;;;14.30;99.90;;;;;;5076852;28;20265;-78
2022/06/10 00:26:41;;;;;;;5.17;3.20;;;14.30;99.90;;;;;;5079266;28;20646;-79
2022/06/10 00:29:08;;;;;;;7.27;3.20;;;14.20;99.90;;;;;;5080804;28;20243;-79
2022/06/10 00:31:34;;;;;;;9.73;3.40;;;14.10;99.90;;;;;;5079671;28;20218;-78
2022/06/10 00:34:01;;;;;;;9.17;2.93;;;14.10;99.90;;;;;;5080999;28;20206;-78
2022/06/10 00:36:28;;;;;;;7.40;3.30;;;14.10;99.90;;;;;;5075221;28;20253;-80
2022/06/10 00:38:55;;;;;;;5.33;3.10;;;14.00;99.90;;;;;;5082029;28;20216;-78
2022/06/10 00:41:21;;;;;;;9.30;3.90;;;14.00;99.90;;;;;;5080041;28;20207;-78
2022/06/10 00:43:48;;;;;;;7.63;3.13;;;14.00;99.90;;;;;;5080438;28;20227;-78
2022/06/10 00:46:28;;;;;;;6.67;3.30;;;13.90;99.90;;;;;;5073480;28;20218;-78
2022/06/10 00:49:12;;;;;;;9.07;3.90;;;13.90;99.90;;;;;;5079969;28;20214;-79
2022/06/10 00:51:51;;;;;;;8.27;3.47;;;13.80;99.90;;;;;;5077582;28;20268;-80
2022/06/10 00:54:25;;;;;;;7.27;3.50;;;13.80;99.90;;;;;;5068504;28;20243;-80
2022/06/10 00:56:58;;;;;;;12.73;3.83;;;13.70;99.90;;;;;;5071888;28;20716;-79
2022/06/10 00:59:30;;;;;;;10.17;4.07;;;13.70;99.90;;;;;;5079671;28;20207;-78
2022/06/10 01:02:03;;;;;;;7.07;3.47;;;13.70;99.90;;;;;;5078497;28;20602;-79
2022/06/10 01:04:30;;;;;;;7.03;3.63;;;13.60;99.90;;;;;;5077659;28;20650;-77
2022/06/10 01:06:57;;;;;;;6.77;3.50;;;13.60;99.90;;;;;;5075851;28;20665;-79
2022/06/10 01:09:28;;;;;;;7.10;3.30;;;13.60;99.90;;;;;;5079291;28;20674;-79
2022/06/10 01:12:18;;;;;;;9.27;3.50;;;13.50;99.90;;;;;;5078859;28;20214;-80
2022/06/10 01:14:54;;;;;;;9.40;3.50;;;13.50;99.90;;;;;;5078977;28;20225;-79
2022/06/10 01:17:39;;;;;;;8.23;4.00;;;13.50;99.90;;;;;;5074254;28;20229;-79
2022/06/10 01:20:05;;;;;;;10.93;4.20;;;13.40;99.90;;;;;;5082961;28;20550;-79
2022/06/10 01:23:07;;;;;;;9.87;3.50;;;13.40;99.90;;;;;;5083374;28;20266;-79
2022/06/10 01:25:40;;;;;;;8.87;3.73;;;13.40;99.90;;;;;;5079405;28;20221;-80
2022/06/10 01:28:38;;;;;;;7.30;3.63;;;13.30;99.90;;;;;;5077168;28;20283;-80
2022/06/10 01:31:19;;;;;;;8.67;3.77;;;13.30;99.90;;;;;;5075653;28;20640;-79
2022/06/10 01:33:52;;;;;;;11.43;4.10;;;13.30;99.90;;;;;;5075504;28;20217;-78
2022/06/10 01:36:45;;;;;;;9.73;3.83;;;13.20;99.90;;;;;;5082446;28;20896;-79
2022/06/10 01:39:24;;;;;;;10.97;3.90;;;13.30;99.90;;;;;;5078224;28;20252;-78
2022/06/10 01:42:04;;;;;;;9.60;4.03;;;13.20;99.90;;;;;;5079634;28;20249;-78
2022/06/10 01:44:43;;;;;;;11.60;4.53;;;13.20;99.90;;;;;;5075350;28;20310;-79
2022/06/10 01:47:26;;;;;;;7.83;3.60;;;13.10;99.90;;;;;;5075693;28;20225;-78
2022/06/10 01:50:04;;;;;;;10.07;3.93;;;13.10;99.90;;;;;;5078808;28;20261;-79
2022/06/10 01:52:48;;;;;;;8.97;3.50;;;13.10;99.90;;;;;;5074446;28;20261;-78
2022/06/10 01:55:28;;;;;;;9.43;3.97;;;13.10;99.90;;;;;;5077588;28;20236;-78
2022/06/10 01:58:02;;;;;;;7.50;3.37;;;13.10;99.90;;;;;;5077655;28;20266;-80
2022/06/10 02:00:32;;;;;;;12.17;4.10;;;13.00;99.90;;;;;;5074437;28;20210;-78
2022/06/10 02:03:18;;;;;;;12.27;4.57;;;13.00;99.90;;;;;;5075007;28;20200;-77
2022/06/10 02:05:50;;;;;;;9.27;4.30;;;13.00;99.90;;;;;;5078869;28;20240;-78
2022/06/10 02:08:27;;;;;;;11.07;4.30;;;13.00;99.90;;;;;;5073879;28;20206;-79
2022/06/10 02:11:03;;;;;;;8.73;4.20;;;12.90;99.90;;;;;;5084747;28;20701;-78
2022/06/10 02:13:34;;;;;;;12.30;4.50;;;12.90;99.90;;;;;;5075062;28;20302;-78
2022/06/10 02:16:04;;;;;;;12.20;4.60;;;12.90;99.90;;;;;;5075251;28;20271;-79
2022/06/10 02:18:39;;;;;;;11.77;4.20;;;12.90;99.90;;;;;;5072839;28;20202;-79
2022/06/10 02:21:16;;;;;;;12.43;4.73;;;12.90;99.90;;;;;;5074170;28;20555;-79
2022/06/10 02:23:48;;;;;;;9.07;4.50;;;12.80;99.90;;;;;;5076198;28;20201;-79
2022/06/10 02:26:16;;;;;;;10.70;4.77;;;12.90;99.90;;;;;;5078260;28;20765;-78
2022/06/10 02:28:51;;;;;;;11.30;4.60;;;12.80;99.90;;;;;;5076510;28;20270;-79
2022/06/10 02:31:24;;;;;;;11.83;4.53;;;12.80;99.90;;;;;;5077076;28;20192;-79
2022/06/10 02:33:51;;;;;;;8.63;4.50;;;12.80;99.90;;;;;;5074001;28;20282;-79
2022/06/10 02:36:28;;;;;;;9.27;4.83;;;12.70;99.90;;;;;;5078486;28;20285;-79
2022/06/10 02:39:18;;;;;;;11.17;4.83;;;12.70;99.90;;;;;;5078370;28;20208;-79
2022/06/10 02:42:19;;;;;;;20.73;5.90;;;12.70;99.90;;;;;;5077967;28;20214;-77
2022/06/10 02:45:18;;;;;;;11.27;5.13;;;12.70;99.90;;;;;;5081368;28;20206;-78
2022/06/10 02:48:02;;;;;;;13.30;4.90;;;12.70;99.90;;;;;;5078389;28;20201;-77
2022/06/10 02:50:29;;;;;;;13.97;4.73;;;12.60;99.90;;;;;;5079614;28;20254;-79
2022/06/10 02:52:57;;;;;;;16.57;5.73;;;12.60;99.90;;;;;;5081697;28;20508;-78
2022/06/10 02:55:26;;;;;;;10.90;5.47;;;12.70;99.90;;;;;;5085935;28;20298;-78
2022/06/10 03:01:13;;;;;;;14.40;6.87;;;12.80;99.90;;;;;;5084571;28;20205;-79
2022/06/10 03:03:50;;;;;;;9.67;4.70;;;12.90;99.90;;;;;;5080259;28;20213;-78
2022/06/10 03:06:29;;;;;;;10.63;4.83;;;12.90;99.90;;;;;;5085946;28;20606;-78
2022/06/10 03:09:14;;;;;;;11.57;4.67;;;13.00;99.90;;;;;;5078887;28;20624;-78
2022/06/10 03:12:02;;;;;;;7.17;4.73;;;13.10;99.90;;;;;;5082347;28;20775;-78
2022/06/10 03:14:41;;;;;;;10.10;4.70;;;13.20;99.90;;;;;;5081233;28;20206;-79
2022/06/10 03:17:21;;;;;;;12.80;5.27;;;13.20;99.90;;;;;;5078511;28;20218;-77
2022/06/10 03:20:03;;;;;;;9.40;4.33;;;13.30;99.90;;;;;;5085516;28;20253;-78
2022/06/10 03:22:51;;;;;;;8.17;4.90;;;13.30;99.90;;;;;;5081839;28;20216;-78
2022/06/10 03:25:23;;;;;;;9.70;4.93;;;13.40;99.90;;;;;;5080427;28;20323;-80
2022/06/10 03:28:24;;;;;;;11.37;4.50;;;13.40;99.90;;;;;;5075777;28;20204;-78
2022/06/10 03:31:09;;;;;;;14.17;5.10;;;13.40;99.90;;;;;;5097557;28;20206;-79
2022/06/10 03:34:03;;;;;;;12.00;4.57;;;13.50;99.90;;;;;;5077388;28;20199;-79
2022/06/10 03:36:32;;;;;;;13.97;5.27;;;13.50;99.90;;;;;;5076834;28;20228;-78
2022/06/10 03:39:01;;;;;;;12.17;4.73;;;13.60;99.90;;;;;;5080779;28;20269;-79
2022/06/10 03:41:33;;;;;;;7.93;4.27;;;13.60;99.90;;;;;;5082849;28;20204;-78
2022/06/10 03:44:03;;;;;;;12.97;4.50;;;13.80;99.90;;;;;;5077580;28;20683;-79
2022/06/10 03:46:33;;;;;;;8.23;4.33;;;13.80;99.90;;;;;;5081089;28;20599;-77
2022/06/10 03:49:10;;;;;;;11.87;4.50;;;14.00;99.90;;;;;;5079676;28;20254;-78
2022/06/10 03:51:38;;;;;;;8.17;4.10;;;14.10;99.90;;;;;;5092580;28;20623;-78
2022/06/10 03:54:06;;;;;;;14.53;4.57;;;14.10;99.90;;;;;;5079053;28;20236;-79
2022/06/10 03:56:35;;;;;;;10.07;4.67;;;14.20;99.90;;;;;;5080173;28;20234;-76
2022/06/10 03:59:03;;;;;;;13.10;4.20;;;14.30;99.90;;;;;;5078508;28;20302;-78
2022/06/10 04:01:30;;;;;;;11.03;4.40;;;14.30;99.90;;;;;;5076025;28;20326;-77
2022/06/10 04:03:57;;;;;;;10.03;4.33;;;14.40;99.90;;;;;;5079926;28;20196;-79
2022/06/10 04:06:24;;;;;;;10.60;3.80;;;14.50;99.90;;;;;;5078020;28;20212;-79
2022/06/10 04:09:13;;;;;;;14.97;4.60;;;14.50;99.90;;;;;;5077837;28;20251;-78
2022/06/10 04:11:40;;;;;;;13.77;4.23;;;14.60;99.90;;;;;;5078728;28;20650;-79
2022/06/10 04:14:07;;;;;;;13.07;4.00;;;14.60;99.90;;;;;;5078312;28;20731;-78
2022/06/10 04:16:33;;;;;;;12.63;3.77;;;14.70;99.90;;;;;;5076377;28;20243;-77
2022/06/10 04:19:00;;;;;;;13.17;4.13;;;14.70;99.90;;;;;;5080022;28;20208;-78
2022/06/10 04:21:27;;;;;;;7.70;3.70;;;14.80;99.90;;;;;;5075735;28;20209;-78
2022/06/10 04:23:54;;;;;;;7.97;3.87;;;14.80;99.90;;;;;;5077139;28;20218;-78
2022/06/10 04:26:21;;;;;;;7.37;3.90;;;14.80;99.90;;;;;;5081216;28;20208;-79
2022/06/10 04:28:47;;;;;;;9.97;4.23;;;14.90;99.90;;;;;;5077402;28;20203;-78
2022/06/10 04:31:14;;;;;;;12.83;4.60;;;15.00;99.90;;;;;;5076075;28;20232;-79
2022/06/10 04:33:41;;;;;;;12.27;4.10;;;15.00;99.90;;;;;;5081490;28;20211;-78
2022/06/10 04:36:09;;;;;;;10.27;4.73;;;15.00;99.90;;;;;;5076700;28;20220;-80
2022/06/10 04:38:36;;;;;;;7.83;4.37;;;15.00;99.90;;;;;;5080941;28;20196;-78
2022/06/10 04:41:05;;;;;;;16.90;4.63;;;15.00;99.90;;;;;;5070279;28;20706;-78
2022/06/10 04:43:34;;;;;;;12.00;5.50;;;15.10;99.90;;;;;;5083061;28;20208;-79
2022/06/10 04:46:03;;;;;;;13.47;4.33;;;15.10;99.90;;;;;;5077616;28;20258;-78
2022/06/10 04:48:30;;;;;;;14.27;4.73;;;15.10;99.90;;;;;;5077207;28;20200;-80
2022/06/10 04:50:56;;;;;;;8.80;4.10;;;15.20;99.90;;;;;;5075662;28;20254;-78
2022/06/10 04:53:23;;;;;;;8.63;4.10;;;15.30;99.90;;;;;;5081238;28;20320;-78
2022/06/10 04:55:50;;;;;;;11.60;4.63;;;15.30;99.90;;;;;;5085418;28;20234;-77
2022/06/10 04:58:18;;;;;;;10.03;4.40;;;15.40;99.90;;;;;;5082864;28;20569;-78
2022/06/10 05:00:51;;;;;;;15.40;4.70;;;15.40;99.90;;;;;;5080938;28;20207;-78
2022/06/10 05:03:18;;;;;;;9.37;3.87;;;15.50;99.90;;;;;;5081252;28;20200;-77
2022/06/10 05:05:45;;;;;;;11.07;4.33;;;15.50;99.90;;;;;;5084070;28;20234;-79
2022/06/10 05:08:14;;;;;;;13.17;4.47;;;15.60;99.90;;;;;;5074922;28;20257;-78
2022/06/10 05:10:41;;;;;;;10.67;4.30;;;15.70;99.90;;;;;;5081156;28;20265;-79
2022/06/10 05:13:08;;;;;;;10.03;4.50;;;15.70;99.90;;;;;;5079537;28;20246;-78
2022/06/10 05:15:36;;;;;;;8.87;4.40;;;15.70;99.90;;;;;;5075428;28;20535;-80
2022/06/10 05:18:03;;;;;;;13.63;4.63;;;15.80;99.90;;;;;;5081092;28;20232;-78
2022/06/10 05:20:35;;;;;;;14.60;5.13;;;15.70;99.90;;;;;;5080591;28;20272;-79
2022/06/10 05:23:03;;;;;;;14.93;5.30;;;15.60;99.90;;;;;;5081845;28;20216;-79
2022/06/10 05:25:31;;;;;;;14.70;6.07;;;15.50;99.90;;;;;;5083512;28;20220;-79
2022/06/10 05:27:58;;;;;;;13.80;5.43;;;15.50;99.90;;;;;;5082963;28;20202;-78
2022/06/10 05:30:27;;;;;;;12.50;5.23;;;15.50;99.90;;;;;;5078794;28;20285;-79
2022/06/10 05:32:54;;;;;;;12.70;5.30;;;15.50;99.90;;;;;;5081464;28;20196;-80
2022/06/10 05:35:21;;;;;;;10.57;4.93;;;15.60;99.90;;;;;;5082822;28;20257;-78
2022/06/10 05:37:48;;;;;;;12.53;5.77;;;15.60;99.90;;;;;;5078996;28;20301;-79
2022/06/10 05:40:22;;;;;;;11.87;4.97;;;15.80;99.90;;;;;;5074180;28;20212;-78
2022/06/10 05:42:49;;;;;;;10.33;5.67;;;15.90;99.90;;;;;;5080454;28;20212;-80
2022/06/10 05:45:17;;;;;;;6.43;4.20;;;16.10;99.90;;;;;;5079081;28;20246;-80
2022/06/10 05:47:47;;;;;;;11.37;4.67;;;16.30;99.90;;;;;;5078640;28;20208;-80
2022/06/10 05:50:21;;;;;;;14.30;4.50;;;16.40;99.90;;;;;;5077692;28;20195;-78
2022/06/10 05:52:48;;;;;;;8.73;4.03;;;16.50;99.90;;;;;;5081111;28;20272;-77
2022/06/10 05:55:16;;;;;;;15.33;4.23;;;16.70;99.90;;;;;;5079155;28;20258;-80
2022/06/10 05:57:43;;;;;;;9.33;3.93;;;16.80;99.90;;;;;;5083405;28;20208;-79
2022/06/10 06:00:16;;;;;;;11.70;4.07;;;16.90;99.90;;;;;;5082850;28;20228;-78
2022/06/10 06:02:43;;;;;;;10.30;4.40;;;16.90;99.90;;;;;;5086445;28;20205;-78
2022/06/10 06:05:11;;;;;;;8.88;3.80;;;17.20;99.90;;;;;;5087508;28;20214;-79
2022/06/10 06:07:41;;;;;;;8.52;3.45;;;17.30;99.90;;;;;;5087757;28;20561;-80
2022/06/10 06:10:12;;;;;;;10.13;3.95;;;17.50;99.90;;;;;;5081107;28;20234;-80
2022/06/10 06:12:39;;;;;;;12.10;3.75;;;17.60;99.90;;;;;;5082578;28;20250;-78
2022/06/10 06:15:06;;;;;;;8.90;3.80;;;17.80;99.90;;;;;;5087391;28;20580;-78
2022/06/10 06:17:34;;;;;;;9.65;4.00;;;17.90;99.90;;;;;;5084928;28;21479;-78
2022/06/10 06:20:03;;;;;;;9.95;3.80;;;18.00;99.90;;;;;;5086944;28;20200;-80
2022/06/10 06:22:30;;;;;;;8.05;2.97;;;18.20;99.90;;;;;;5084582;28;20214;-78
2022/06/10 06:24:56;;;;;;;9.18;3.42;;;18.30;99.90;;;;;;5089757;28;20215;-81
2022/06/10 06:27:23;;;;;;;7.00;2.85;;;18.50;99.90;;;;;;5087051;28;20235;-80
2022/06/10 06:29:50;;;;;;;6.40;3.28;;;18.50;99.90;;;;;;5091329;28;20200;-81
2022/06/10 06:32:17;;;;;;;8.32;2.90;;;18.90;99.90;;;;;;5086741;28;20655;-79
2022/06/10 06:34:44;;;;;;;6.75;2.90;;;19.00;99.90;;;;;;5078325;28;20204;-80
2022/06/10 06:37:14;;;;;;;10.48;2.75;;;19.30;99.90;;;;;;5090797;28;20285;-79
2022/06/10 06:39:41;;;;;;;8.52;2.72;;;19.30;99.90;;;;;;5089429;28;20208;-83
2022/06/10 06:42:09;;;;;;;7.93;2.70;;;19.30;99.90;;;;;;5083061;28;20281;-82
2022/06/10 06:44:36;;;;;;;6.63;2.50;;;19.30;99.90;;;;;;5087310;28;20674;-79
2022/06/10 06:47:03;;;;;;;10.77;2.33;;;19.30;99.90;;;;;;5084289;28;20204;-80
2022/06/10 06:49:30;;;;;;;7.22;2.85;;;19.30;99.90;;;;;;5089798;28;20245;-81
2022/06/10 06:51:57;;;;;;;10.23;2.90;;;19.30;99.90;;;;;;5086507;28;20617;-82
2022/06/10 06:54:24;;;;;;;6.85;2.33;;;19.30;99.90;;;;;;5088614;28;20232;-78
2022/06/10 06:56:51;;;;;;;8.13;2.70;;;19.40;99.90;;;;;;5081896;28;20223;-78
2022/06/10 06:59:18;;;;;;;7.80;2.42;;;19.40;99.90;;;;;;5079218;28;20212;-78
2022/06/10 07:01:45;;;;;;;9.93;2.70;;;19.30;99.90;;;;;;5078818;28;20610;-79
2022/06/10 07:04:12;;;;;;;7.43;2.80;;;19.20;99.90;;;;;;5073367;28;20279;-80
2022/06/10 07:06:44;;;;;;;10.07;2.53;;;19.20;99.90;;;;;;5079580;28;20238;-78
2022/06/10 07:09:11;;;;;;;6.05;2.38;;;19.20;99.90;;;;;;5078844;28;20230;-79
2022/06/10 07:11:38;;;;;;;9.93;2.80;;;19.30;99.90;;;;;;5085825;28;20204;-78
2022/06/10 07:14:10;;;;;;;10.05;2.97;;;19.20;99.90;;;;;;5087630;28;20257;-77
2022/06/10 07:16:37;;;;;;;12.20;2.53;;;19.30;99.90;;;;;;5081291;28;20240;-78
2022/06/10 07:19:06;;;;;;;7.25;2.60;;;19.40;99.90;;;;;;5085076;28;20320;-77
2022/06/10 07:21:33;;;;;;;8.75;2.53;;;19.30;99.90;;;;;;5085514;28;20270;-79
2022/06/10 07:24:00;;;;;;;8.73;2.38;;;19.20;99.90;;;;;;5076507;28;20201;-77
2022/06/10 07:26:27;;;;;;;5.25;2.42;;;19.30;99.90;;;;;;5090605;28;20207;-79
2022/06/10 07:28:54;;;;;;;9.25;2.95;;;19.10;99.90;;;;;;5089213;28;20296;-81
2022/06/10 07:31:21;;;;;;;12.45;2.67;;;19.10;99.90;;;;;;5087372;28;20208;-80
2022/06/10 07:33:48;;;;;;;10.07;2.95;;;19.10;99.90;;;;;;5083353;28;20215;-80
2022/06/10 07:36:15;;;;;;;11.60;2.92;;;19.10;99.90;;;;;;5084945;28;20277;-80
2022/06/10 07:38:42;;;;;;;11.35;3.05;;;19.20;99.90;;;;;;5086450;28;20200;-79
2022/06/10 07:43:55;;;;;;;9.95;3.45;;;19.20;99.90;;;;;;5089934;28;20264;-77
2022/06/10 07:46:23;;;;;;;9.88;2.97;;;19.40;99.90;;;;;;5090018;28;20700;-78
2022/06/10 07:48:50;;;;;;;7.75;2.90;;;19.60;99.90;;;;;;5087558;28;20192;-80
2022/06/10 07:51:18;;;;;;;9.85;2.60;;;20.00;99.90;;;;;;5089364;28;20207;-78
2022/06/10 07:53:45;;;;;;;9.88;2.65;;;20.30;99.90;;;;;;5085102;28;20219;-82
2022/06/10 07:56:14;;;;;;;7.60;2.92;;;20.40;99.90;;;;;;5086928;28;20259;-78
2022/06/10 07:58:42;;;;;;;9.05;3.42;;;20.30;99.90;;;;;;5084203;28;20292;-79
2022/06/10 08:01:09;;;;;;;7.90;2.75;;;20.20;99.90;;;;;;5083516;28;20200;-82
2022/06/10 08:03:36;;;;;;;9.68;3.30;;;19.90;99.90;;;;;;5090952;28;20714;-80
2022/06/10 08:06:03;;;;;;;6.88;3.03;;;19.70;99.90;;;;;;5088644;28;20752;-81
2022/06/10 08:08:31;;;;;;;10.48;3.42;;;19.70;99.90;;;;;;5093088;28;20214;-82
2022/06/10 08:10:58;;;;;;;6.93;3.17;;;19.80;99.90;;;;;;5088190;28;20219;-79
2022/06/10 08:13:26;;;;;;;7.22;2.83;;;19.90;99.90;;;;;;5090573;28;20736;-81
2022/06/10 08:15:56;;;;;;;8.85;3.25;;;20.10;99.90;;;;;;5082807;28;20735;-80
2022/06/10 08:18:23;;;;;;;8.00;2.80;;;20.40;99.90;;;;;;5089244;28;20643;-79
2022/06/10 08:23:37;;;;;;;8.07;2.50;;;21.40;99.90;;;;;;5086037;28;20246;-78
2022/06/10 08:26:06;;;;;;;9.43;2.72;;;22.20;99.90;;;;;;5088947;28;20226;-78
2022/06/10 08:28:35;;;;;;;8.95;2.92;;;22.90;99.90;;;;;;5085357;28;20230;-79
2022/06/10 08:31:03;;;;;;;6.97;2.47;;;23.10;99.90;;;;;;5081493;28;20305;-80
2022/06/10 08:33:31;;;;;;;7.60;2.47;;;23.30;99.90;;;;;;5084101;28;20256;-80
2022/06/10 08:36:00;;;;;;;10.45;2.97;;;23.40;99.90;;;;;;5091829;28;20204;-78
2022/06/10 08:38:27;;;;;;;8.20;2.70;;;23.40;99.90;;;;;;5086493;28;20260;-78
2022/06/10 08:41:23;;;;;;;5.30;2.25;;;23.40;99.90;;;;;;5089190;28;20207;-80
2022/06/10 08:44:12;;;;;;;6.93;3.03;;;23.80;99.90;;;;;;5087469;28;20271;-78
2022/06/10 08:47:07;;;;;;;7.75;2.55;;;24.10;99.90;;;;;;5085841;28;20750;-79
2022/06/10 08:50:15;;;;;;;13.73;2.42;;;24.10;99.90;;;;;;5086530;28;20331;-80
2022/06/10 08:52:55;;;;;;;10.77;2.38;;;23.90;99.90;;;;;;5084364;28;20291;-79
2022/06/10 08:55:42;;;;;;;7.10;2.38;;;23.80;99.90;;;;;;5093481;28;20207;-78
2022/06/10 08:58:16;;;;;;;5.95;2.33;;;23.90;99.90;;;;;;5084374;28;20228;-80
2022/06/10 09:00:44;;;;;;;9.35;2.45;;;23.80;99.90;;;;;;5085791;28;20199;-84
2022/06/10 09:03:19;;;;;;;5.47;2.20;;;23.80;99.90;;;;;;5084732;28;20275;-80
2022/06/10 09:05:48;;;;;;;5.97;2.38;;;23.60;99.90;;;;;;5087926;28;20207;-77
2022/06/10 09:08:20;;;;;;;5.45;2.13;;;23.30;99.90;;;;;;5085565;28;20192;-86
2022/06/10 09:11:15;;;;;;;6.75;2.00;;;23.30;99.90;;;;;;5079979;28;20240;-83
2022/06/10 09:13:58;;;;;;;6.13;2.08;;;23.40;99.90;;;;;;5079524;28;20208;-84
2022/06/10 09:16:38;;;;;;;8.50;2.20;;;23.80;99.90;;;;;;5086948;28;20231;-82
2022/06/10 09:19:26;;;;;;;7.78;2.50;;;23.90;99.90;;;;;;5081999;28;20281;-82
2022/06/10 09:22:22;;;;;;;6.32;2.42;;;24.00;99.90;;;;;;5083131;28;20276;-80
2022/06/10 09:24:53;;;;;;;8.38;2.15;;;24.20;99.90;;;;;;5087266;28;20208;-90
2022/06/10 09:27:32;;;;;;;6.60;1.88;;;25.00;99.90;;;;;;5091154;28;20208;-81
2022/06/10 09:30:03;;;;;;;5.20;1.90;;;25.20;99.90;;;;;;5082027;28;20211;-85
2022/06/10 09:33:03;;;;;;;6.28;1.98;;;25.40;99.90;;;;;;5075688;28;20218;-83
2022/06/10 09:35:58;;;;;;;7.50;2.35;;;25.30;99.90;;;;;;5071605;28;20214;-84
2022/06/10 09:38:36;;;;;;;5.43;2.10;;;25.20;99.90;;;;;;5085032;28;20725;-81
2022/06/10 09:41:33;;;;;;;5.43;2.10;;;25.20;99.90;;;;;;5087675;28;20606;-85
2022/06/10 09:44:31;;;;;;;8.85;2.05;;;25.40;99.90;;;;;;5103901;27;20204;-85
2022/06/10 09:47:26;;;;;;;6.53;2.47;;;25.40;99.90;;;;;;5095052;28;20651;-87
2022/06/10 09:50:20;;;;;;;5.38;1.92;;;25.30;99.90;;;;;;5101948;28;20216;-86
2022/06/10 09:53:08;;;;;;;6.45;2.20;;;25.10;99.90;;;;;;5114640;27;20200;-85
2022/06/10 09:56:04;;;;;;;7.63;2.00;;;25.20;99.90;;;;;;5107649;28;20276;-88
2022/06/10 09:58:34;;;;;;;4.72;2.25;;;25.40;99.90;;;;;;5106068;28;20211;-87
2022/06/10 10:01:13;;;;;;;6.03;2.10;;;25.50;99.90;;;;;;5101280;28;20193;-88
2022/06/10 10:04:08;;;;;;;7.90;2.33;;;25.60;99.90;;;;;;5100239;28;20227;-88
2022/06/10 10:06:54;;;;;;;8.65;2.70;;;25.70;99.90;;;;;;5104374;28;20768;-86
2022/06/10 10:09:48;;;;;;;7.63;1.92;;;25.80;99.90;;;;;;5090808;28;20216;-86
2022/06/10 10:12:32;;;;;;;5.93;1.92;;;25.70;99.90;;;;;;5102317;27;20199;-90
2022/06/10 10:15:24;;;;;;;5.65;2.08;;;25.50;99.90;;;;;;5090584;28;20199;-87
2022/06/10 10:17:54;;;;;;;6.90;2.10;;;25.40;99.90;;;;;;5087664;28;20220;-87
2022/06/10 10:20:39;;;;;;;5.70;1.88;;;25.30;99.90;;;;;;5092330;28;20199;-89
2022/06/10 10:23:37;;;;;;;4.85;1.63;;;25.40;99.90;;;;;;5084683;28;20216;-88
2022/06/10 10:26:08;;;;;;;7.90;2.00;;;25.60;99.90;;;;;;5083287;28;20269;-88
2022/06/10 10:28:41;;;;;;;9.20;1.92;;;25.70;99.90;;;;;;5081712;28;20208;-87
2022/06/10 10:31:26;;;;;;;6.22;1.98;;;25.80;99.90;;;;;;5081501;28;20207;-87
2022/06/10 10:33:57;;;;;;;5.60;2.17;;;25.80;99.90;;;;;;5080185;28;20225;-85
2022/06/10 10:36:27;;;;;;;6.90;1.83;;;25.80;99.90;;;;;;5087532;28;20260;-85
2022/06/10 10:38:56;;;;;;;14.13;2.55;;;25.80;99.90;;;;;;5086860;28;20599;-85
2022/06/10 10:41:26;;;;;;;6.35;1.92;;;25.60;99.90;;;;;;5096488;28;20199;-86
2022/06/10 10:44:00;;;;;;;7.60;2.45;;;25.20;99.90;;;;;;5092607;28;20217;-85
2022/06/10 10:46:33;;;;;;;7.38;2.13;;;25.10;99.90;;;;;;5093647;28;20266;-85
2022/06/10 10:49:04;;;;;;;4.95;1.90;;;25.10;99.90;;;;;;5085636;28;20215;-83
2022/06/10 10:51:39;;;;;;;4.53;1.90;;;25.00;99.90;;;;;;5083955;28;20297;-84
2022/06/10 10:54:30;;;;;;;5.68;2.15;;;24.90;99.90;;;;;;5087511;28;20228;-88
2022/06/10 10:56:58;;;;;;;7.10;1.92;;;24.90;99.90;;;;;;5088009;28;20227;-88
2022/06/10 10:59:35;;;;;;;9.25;2.15;;;25.00;99.90;;;;;;5094014;28;20660;-83
2022/06/10 11:02:25;;;;;;;6.05;2.15;;;25.10;99.90;;;;;;5089932;28;20245;-89
2022/06/10 11:05:20;;;;;;;7.68;2.90;;;25.00;99.90;;;;;;5091353;28;20207;-86
2022/06/10 11:08:23;;;;;;;9.07;2.70;;;24.90;99.90;;;;;;5091935;28;20685;-86
2022/06/10 11:11:02;;;;;;;6.32;2.78;;;24.80;99.90;;;;;;5105871;27;20298;-87
2022/06/10 11:13:47;;;;;;;7.63;2.45;;;24.70;99.90;;;;;;5089913;28;20199;-88
2022/06/10 11:16:23;;;;;;;10.30;3.20;;;24.60;99.90;;;;;;5095711;28;20264;-87
2022/06/10 11:18:52;;;;;;;8.43;2.50;;;24.40;99.90;;;;;;5101852;27;20722;-87
2022/06/10 11:21:23;;;;;;;9.23;2.65;;;24.10;99.90;;;;;;5092838;28;20619;-85
2022/06/10 11:23:54;;;;;;;8.05;2.80;;;23.80;99.90;;;;;;5087528;28;20203;-87
2022/06/10 11:26:22;;;;;;;9.70;2.63;;;23.60;99.90;;;;;;5094558;28;20594;-86
2022/06/10 11:29:02;;;;;;;7.22;2.92;;;23.50;99.90;;;;;;5081574;28;20211;-85
2022/06/10 11:31:45;;;;;;;7.15;2.78;;;23.50;99.90;;;;;;5082926;28;20223;-87
2022/06/10 11:34:45;;;;;;;8.20;2.80;;;23.60;99.90;;;;;;5094079;28;20722;-85
2022/06/10 11:37:35;;;;;;;8.27;2.83;;;23.80;99.90;;;;;;5076558;28;20228;-90
2022/06/10 11:40:10;;;;;;;6.05;2.83;;;23.90;99.90;;;;;;5080866;28;20610;-88
2022/06/10 11:43:03;;;;;;;6.13;2.35;;;23.90;99.90;;;;;;5089747;28;20679;-86
2022/06/10 11:45:41;;;;;;;6.88;2.88;;;23.70;99.90;;;;;;5100771;27;20212;-88
2022/06/10 11:48:50;;;;;;;9.35;3.40;;;23.70;99.90;;;;;;5089030;28;20562;-86
2022/06/10 11:51:35;;;;;;;9.57;3.25;;;23.80;99.90;;;;;;5091340;27;20203;-87
2022/06/10 11:54:26;;;;;;;8.65;3.20;;;24.00;99.90;;;;;;5085986;28;20225;-87
2022/06/10 12:00:06;;;;;;;8.35;2.75;;;24.80;99.90;;;;;;5090620;28;20240;-86
2022/06/10 12:02:56;;;;;;;7.43;3.25;;;25.30;99.90;;;;;;5091510;28;20208;-85
2022/06/10 12:05:35;;;;;;;7.18;3.10;;;25.30;99.90;;;;;;5089219;28;20310;-86
2022/06/10 12:08:24;;;;;;;8.05;2.63;;;25.10;99.90;;;;;;5085399;28;20208;-85
2022/06/10 12:11:22;;;;;;;6.03;3.30;;;24.90;99.90;;;;;;5094475;28;20224;-85
2022/06/10 12:14:07;;;;;;;7.03;3.15;;;24.80;99.90;;;;;;5091576;28;20203;-86
2022/06/10 12:16:47;;;;;;;7.97;2.88;;;24.60;99.90;;;;;;5083953;28;20204;-85
2022/06/10 12:19:29;;;;;;;6.88;2.95;;;24.60;99.90;;;;;;5082139;28;20543;-84
2022/06/10 12:21:56;;;;;;;12.68;3.15;;;24.70;99.90;;;;;;5086284;28;20196;-83
2022/06/10 12:24:23;;;;;;;11.13;3.33;;;25.10;99.90;;;;;;5086201;28;20223;-84
2022/06/10 12:27:00;;;;;;;7.35;3.53;;;25.40;99.90;;;;;;5089535;28;20211;-84
2022/06/10 12:29:45;;;;;;;7.07;3.88;;;25.70;99.90;;;;;;5083594;28;20216;-86
2022/06/10 12:32:18;;;;;;;8.23;2.90;;;25.70;99.90;;;;;;5081475;28;20192;-84
2022/06/10 12:34:59;;;;;;;6.43;3.13;;;25.50;99.90;;;;;;5088481;28;20559;-84
2022/06/10 12:37:26;;;;;;;7.07;3.20;;;25.20;99.90;;;;;;5089512;28;20984;-83
2022/06/10 12:40:00;;;;;;;17.45;5.03;;;25.00;99.90;;;;;;5089420;28;20220;-82
2022/06/10 12:42:39;;;;;;;7.00;3.70;;;24.80;99.90;;;;;;5085279;28;20216;-81
2022/06/10 12:45:19;;;;;;;10.70;3.53;;;24.80;99.90;;;;;;5092143;28;20203;-83
2022/06/10 12:47:52;;;;;;;8.20;3.88;;;24.80;99.90;;;;;;5077670;28;20211;-84
2022/06/10 12:50:23;;;;;;;9.60;3.25;;;24.80;99.90;;;;;;5086922;28;20241;-82
2022/06/10 12:53:30;;;;;;;7.13;3.53;;;24.80;99.90;;;;;;5078782;28;20710;-85
2022/06/10 12:56:00;;;;;;;7.00;3.70;;;24.70;99.90;;;;;;5092325;28;20229;-86
2022/06/10 12:58:44;;;;;;;5.82;3.22;;;24.50;99.90;;;;;;5084659;28;20234;-85
2022/06/10 13:01:43;;;;;;;6.35;3.30;;;24.80;99.90;;;;;;5081224;28;20217;-81
2022/06/10 13:04:22;;;;;;;7.78;3.42;;;24.90;99.90;;;;;;5091712;28;20287;-84
2022/06/10 13:06:57;;;;;;;12.45;4.25;;;25.10;99.90;;;;;;5087273;28;20231;-84
2022/06/10 13:09:26;;;;;;;5.25;3.08;;;25.10;99.90;;;;;;5094376;28;20226;-83
2022/06/10 13:12:20;;;;;;;7.28;3.08;;;25.10;99.90;;;;;;5086350;28;20686;-85
2022/06/10 13:15:15;;;;;;;6.20;3.08;;;25.10;99.90;;;;;;5084987;28;20626;-83
2022/06/10 13:18:00;;;;;;;5.30;2.63;;;24.80;99.90;;;;;;5080947;28;20305;-81
2022/06/10 13:20:27;;;;;;;5.68;2.22;;;24.70;99.90;;;;;;5082561;28;20253;-85
2022/06/10 13:23:25;;;;;;;6.65;3.15;;;24.90;99.90;;;;;;5096422;28;20280;-83
2022/06/10 13:26:13;;;;;;;5.90;2.95;;;25.00;99.90;;;;;;5107718;28;20307;-82
2022/06/10 13:28:43;;;;;;;10.38;3.38;;;25.00;99.90;;;;;;5095771;28;20199;-81
2022/06/10 13:31:24;;;;;;;5.43;3.35;;;24.90;99.90;;;;;;5103129;28;20200;-83
2022/06/10 13:34:00;;;;;;;7.05;2.78;;;24.90;99.90;;;;;;5093257;28;20788;-85
2022/06/10 13:36:34;;;;;;;4.22;2.47;;;24.90;99.90;;;;;;5093045;28;20262;-83